sensor_id;sensor_type;location;lat;lon;timestamp;pressure;altitude;pressure_sealevel;temperature;humidity
15674;BME280;7937;48.090;16.212;2023-03-25T00:00:11;96866.44;;;11.72;57.06
15674;BME280;7937;48.090;16.212;2023-03-25T00:03:18;96956.59;;;12.31;56.80
15674;BME280;7937;48.090;16.212;2023-03-25T00:06:21;96981.16;;;12.33;56.22
15674;BME280;7937;48.090;16.212;2023-03-25T00:09:23;96969.41;;;12.39;55.32
15674;BME280;7937;48.090;16.212;2023-03-25T00:12:25;96961.13;;;12.35;56.43
15674;BME280;7937;48.090;16.212;2023-03-25T00:15:28;96967.81;;;12.33;56.67
15674;BME280;7937;48.090;16.212;2023-03-25T00:18:31;96979.59;;;12.27;58.79
15674;BME280;7937;48.090;16.212;2023-03-25T00:21:34;96985.19;;;12.20;59.46
15674;BME280;7937;48.090;16.212;2023-03-25T00:24:36;96991.06;;;12.17;59.64
15674;BME280;7937;48.090;16.212;2023-03-25T00:27:38;96986.53;;;12.12;58.99
15674;BME280;7937;48.090;16.212;2023-03-25T00:30:42;96994.00;;;12.10;59.28
15674;BME280;7937;48.090;16.212;2023-03-25T00:33:44;96999.34;;;12.05;57.85
15674;BME280;7937;48.090;16.212;2023-03-25T00:36:46;96978.53;;;12.07;56.39
15674;BME280;7937;48.090;16.212;2023-03-25T00:39:48;96972.13;;;12.08;54.99
15674;BME280;7937;48.090;16.212;2023-03-25T00:42:50;96982.25;;;12.06;55.24
15674;BME280;7937;48.090;16.212;2023-03-25T00:45:54;96987.59;;;12.17;54.33
15674;BME280;7937;48.090;16.212;2023-03-25T00:48:57;96970.25;;;12.14;54.02
15674;BME280;7937;48.090;16.212;2023-03-25T00:52:00;96980.13;;;12.13;53.87
15674;BME280;7937;48.090;16.212;2023-03-25T00:55:03;96964.09;;;12.24;53.27
15674;BME280;7937;48.090;16.212;2023-03-25T00:58:05;96963.31;;;12.13;54.45
15674;BME280;7937;48.090;16.212;2023-03-25T01:01:13;96955.53;;;12.11;55.21
15674;BME280;7937;48.090;16.212;2023-03-25T01:04:16;96964.13;;;11.98;54.67
15674;BME280;7937;48.090;16.212;2023-03-25T01:07:19;96955.31;;;11.87;54.52
15674;BME280;7937;48.090;16.212;2023-03-25T01:10:21;96984.94;;;11.96;54.75
15674;BME280;7937;48.090;16.212;2023-03-25T01:13:24;96983.06;;;12.02;54.81
15674;BME280;7937;48.090;16.212;2023-03-25T01:16:27;96989.47;;;11.85;55.42
15674;BME280;7937;48.090;16.212;2023-03-25T01:19:29;96983.88;;;11.92;56.44
15674;BME280;7937;48.090;16.212;2023-03-25T01:22:32;96983.06;;;11.86;56.28
15674;BME280;7937;48.090;16.212;2023-03-25T01:25:34;96991.06;;;11.86;56.08
15674;BME280;7937;48.090;16.212;2023-03-25T01:28:38;96982.50;;;11.74;57.04
15674;BME280;7937;48.090;16.212;2023-03-25T01:31:41;96987.56;;;11.71;56.75
15674;BME280;7937;48.090;16.212;2023-03-25T01:34:44;96981.16;;;11.67;56.73
15674;BME280;7937;48.090;16.212;2023-03-25T01:37:47;96975.28;;;11.75;56.75
15674;BME280;7937;48.090;16.212;2023-03-25T01:40:50;96963.56;;;11.76;56.76
15674;BME280;7937;48.090;16.212;2023-03-25T01:47:09;96988.13;;;11.78;56.57
15674;BME280;7937;48.090;16.212;2023-03-25T01:50:11;96971.25;;;11.52;56.97
15674;BME280;7937;48.090;16.212;2023-03-25T01:53:16;97023.03;;;11.66;56.93
15674;BME280;7937;48.090;16.212;2023-03-25T01:56:21;97038.25;;;11.76;57.43
15674;BME280;7937;48.090;16.212;2023-03-25T01:59:26;97024.41;;;11.74;57.29
15674;BME280;7937;48.090;16.212;2023-03-25T02:02:29;97013.19;;;11.77;57.72
15674;BME280;7937;48.090;16.212;2023-03-25T02:05:42;97024.91;;;11.66;57.76
15674;BME280;7937;48.090;16.212;2023-03-25T02:08:47;97027.59;;;11.66;56.98
15674;BME280;7937;48.090;16.212;2023-03-25T02:11:51;97022.53;;;11.69;57.29
15674;BME280;7937;48.090;16.212;2023-03-25T02:14:56;97023.59;;;11.73;57.52
15674;BME280;7937;48.090;16.212;2023-03-25T02:18:10;96995.00;;;11.33;57.37
15674;BME280;7937;48.090;16.212;2023-03-25T02:31:41;97003.28;;;11.52;58.26
15674;BME280;7937;48.090;16.212;2023-03-25T02:38:16;97019.28;;;11.47;58.32
15674;BME280;7937;48.090;16.212;2023-03-25T02:41:40;97033.16;;;11.49;59.09
15674;BME280;7937;48.090;16.212;2023-03-25T02:45:04;97031.81;;;11.51;58.68
15674;BME280;7937;48.090;16.212;2023-03-25T02:48:18;97017.38;;;11.42;59.75
15674;BME280;7937;48.090;16.212;2023-03-25T02:51:29;97015.75;;;11.26;59.66
15674;BME280;7937;48.090;16.212;2023-03-25T02:54:34;97003.78;;;11.28;59.38
15674;BME280;7937;48.090;16.212;2023-03-25T02:57:43;97009.13;;;11.33;60.41
15674;BME280;7937;48.090;16.212;2023-03-25T03:00:48;97009.09;;;11.23;59.97
15674;BME280;7937;48.090;16.212;2023-03-25T03:03:50;97013.63;;;11.28;59.92
15674;BME280;7937;48.090;16.212;2023-03-25T03:06:54;96960.19;;;10.87;59.67
15674;BME280;7937;48.090;16.212;2023-03-25T03:10:20;97014.38;;;11.13;61.01
15674;BME280;7937;48.090;16.212;2023-03-25T03:17:00;97026.66;;;11.14;60.11
15674;BME280;7937;48.090;16.212;2023-03-25T03:27:16;97038.84;;;11.00;61.01
15674;BME280;7937;48.090;16.212;2023-03-25T03:30:25;97051.66;;;11.03;60.13
15674;BME280;7937;48.090;16.212;2023-03-25T03:33:44;97057.50;;;11.00;59.89
15674;BME280;7937;48.090;16.212;2023-03-25T03:36:52;97046.59;;;11.06;60.19
15674;BME280;7937;48.090;16.212;2023-03-25T03:39:56;97055.03;;;10.88;60.90
15674;BME280;7937;48.090;16.212;2023-03-25T03:43:03;97060.38;;;10.93;60.90
15674;BME280;7937;48.090;16.212;2023-03-25T03:46:14;97052.97;;;10.95;60.75
15674;BME280;7937;48.090;16.212;2023-03-25T03:49:20;97052.97;;;11.00;60.11
15674;BME280;7937;48.090;16.212;2023-03-25T03:52:29;97055.34;;;10.92;61.46
15674;BME280;7937;48.090;16.212;2023-03-25T03:55:40;97023.00;;;10.73;61.10
15674;BME280;7937;48.090;16.212;2023-03-25T03:58:44;96973.09;;;10.16;61.01
15674;BME280;7937;48.090;16.212;2023-03-25T04:01:51;97029.63;;;10.65;61.49
15674;BME280;7937;48.090;16.212;2023-03-25T04:04:56;97036.91;;;10.80;61.02
15674;BME280;7937;48.090;16.212;2023-03-25T04:08:12;97038.00;;;10.84;61.26
15674;BME280;7937;48.090;16.212;2023-03-25T04:11:22;97042.50;;;10.83;61.32
15674;BME280;7937;48.090;16.212;2023-03-25T04:14:24;97042.50;;;10.83;61.63
15674;BME280;7937;48.090;16.212;2023-03-25T04:17:27;97046.78;;;10.84;61.01
15674;BME280;7937;48.090;16.212;2023-03-25T04:20:32;97045.97;;;10.79;61.08
15674;BME280;7937;48.090;16.212;2023-03-25T04:23:35;97060.59;;;10.81;61.32
15674;BME280;7937;48.090;16.212;2023-03-25T04:26:38;97052.06;;;10.74;60.78
15674;BME280;7937;48.090;16.212;2023-03-25T04:29:40;97061.41;;;10.82;61.31
15674;BME280;7937;48.090;16.212;2023-03-25T04:32:45;96997.69;;;10.28;61.38
15674;BME280;7937;48.090;16.212;2023-03-25T04:35:48;97047.72;;;10.63;61.73
15674;BME280;7937;48.090;16.212;2023-03-25T04:38:52;97068.50;;;10.66;61.79
15674;BME280;7937;48.090;16.212;2023-03-25T04:41:54;97056.44;;;10.53;61.91
15674;BME280;7937;48.090;16.212;2023-03-25T04:45:04;97024.19;;;10.45;60.59
15674;BME280;7937;48.090;16.212;2023-03-25T04:48:11;97069.75;;;10.53;60.95
15674;BME280;7937;48.090;16.212;2023-03-25T04:51:20;97067.66;;;10.55;60.41
15674;BME280;7937;48.090;16.212;2023-03-25T04:54:24;97079.44;;;10.65;61.14
15674;BME280;7937;48.090;16.212;2023-03-25T04:57:26;97074.56;;;10.56;61.25
15674;BME280;7937;48.090;16.212;2023-03-25T05:00:28;97084.75;;;10.65;61.41
15674;BME280;7937;48.090;16.212;2023-03-25T05:03:31;97088.41;;;10.53;60.80
15674;BME280;7937;48.090;16.212;2023-03-25T05:06:35;97075.84;;;10.49;59.80
15674;BME280;7937;48.090;16.212;2023-03-25T05:09:39;97087.91;;;10.56;60.33
15674;BME280;7937;48.090;16.212;2023-03-25T05:12:41;97091.38;;;10.62;60.37
15674;BME280;7937;48.090;16.212;2023-03-25T05:15:43;97069.72;;;10.48;60.26
15674;BME280;7937;48.090;16.212;2023-03-25T05:18:45;97085.78;;;10.64;60.07
15674;BME280;7937;48.090;16.212;2023-03-25T05:21:47;97102.38;;;10.71;60.32
15674;BME280;7937;48.090;16.212;2023-03-25T05:24:49;97106.59;;;10.67;60.21
15674;BME280;7937;48.090;16.212;2023-03-25T05:27:54;97085.03;;;10.68;59.74
15674;BME280;7937;48.090;16.212;2023-03-25T05:30:56;97102.38;;;10.71;60.04
15674;BME280;7937;48.090;16.212;2023-03-25T05:33:58;97085.06;;;10.73;60.52
15674;BME280;7937;48.090;16.212;2023-03-25T05:37:00;97079.75;;;10.78;60.17
15674;BME280;7937;48.090;16.212;2023-03-25T05:40:03;97092.81;;;10.75;60.02
15674;BME280;7937;48.090;16.212;2023-03-25T05:43:16;97078.94;;;10.73;60.41
15674;BME280;7937;48.090;16.212;2023-03-25T05:46:23;97086.97;;;10.78;59.52
15674;BME280;7937;48.090;16.212;2023-03-25T05:49:28;97084.88;;;10.85;58.30
15674;BME280;7937;48.090;16.212;2023-03-25T05:52:30;97089.59;;;10.73;58.75
15674;BME280;7937;48.090;16.212;2023-03-25T05:55:32;97094.47;;;10.86;58.48
15674;BME280;7937;48.090;16.212;2023-03-25T05:58:39;97087.16;;;10.66;58.59
15674;BME280;7937;48.090;16.212;2023-03-25T06:01:41;97099.50;;;10.82;58.07
15674;BME280;7937;48.090;16.212;2023-03-25T06:04:49;97109.41;;;10.87;58.38
15674;BME280;7937;48.090;16.212;2023-03-25T06:07:51;97103.53;;;10.85;57.68
15674;BME280;7937;48.090;16.212;2023-03-25T06:10:57;97104.63;;;10.89;56.34
15674;BME280;7937;48.090;16.212;2023-03-25T06:13:59;97117.72;;;10.96;56.57
15674;BME280;7937;48.090;16.212;2023-03-25T06:17:03;97104.66;;;10.94;56.74
15674;BME280;7937;48.090;16.212;2023-03-25T06:20:08;97117.22;;;10.99;56.13
15674;BME280;7937;48.090;16.212;2023-03-25T06:23:14;97120.16;;;11.02;56.46
15674;BME280;7937;48.090;16.212;2023-03-25T06:26:19;97131.41;;;11.09;55.44
15674;BME280;7937;48.090;16.212;2023-03-25T06:29:21;97130.81;;;11.02;56.08
15674;BME280;7937;48.090;16.212;2023-03-25T06:32:23;97136.72;;;11.09;55.50
15674;BME280;7937;48.090;16.212;2023-03-25T06:35:26;97131.09;;;11.06;55.37
15674;BME280;7937;48.090;16.212;2023-03-25T06:38:28;97131.59;;;11.03;55.80
15674;BME280;7937;48.090;16.212;2023-03-25T06:41:38;97144.69;;;11.04;55.44
15674;BME280;7937;48.090;16.212;2023-03-25T06:44:49;97123.41;;;11.09;54.32
15674;BME280;7937;48.090;16.212;2023-03-25T06:48:14;97120.00;;;11.24;54.37
15674;BME280;7937;48.090;16.212;2023-03-25T06:51:16;97129.31;;;11.22;55.24
15674;BME280;7937;48.090;16.212;2023-03-25T06:54:18;97126.41;;;11.23;54.46
15674;BME280;7937;48.090;16.212;2023-03-25T06:57:20;97100.50;;;11.14;54.71
15674;BME280;7937;48.090;16.212;2023-03-25T07:00:23;97120.53;;;11.26;53.39
15674;BME280;7937;48.090;16.212;2023-03-25T07:03:27;97119.50;;;11.32;53.90
15674;BME280;7937;48.090;16.212;2023-03-25T07:06:30;97107.53;;;11.40;54.51
15674;BME280;7937;48.090;16.212;2023-03-25T07:09:32;97112.88;;;11.40;52.58
15674;BME280;7937;48.090;16.212;2023-03-25T07:12:35;97115.81;;;11.44;52.54
15674;BME280;7937;48.090;16.212;2023-03-25T07:15:37;97132.09;;;11.47;52.73
15674;BME280;7937;48.090;16.212;2023-03-25T07:18:39;97114.75;;;11.45;51.74
15674;BME280;7937;48.090;16.212;2023-03-25T07:21:42;97105.97;;;11.49;51.94
15674;BME280;7937;48.090;16.212;2023-03-25T07:24:44;97094.53;;;11.59;51.92
15674;BME280;7937;48.090;16.212;2023-03-25T07:27:46;97097.50;;;11.62;51.88
15674;BME280;7937;48.090;16.212;2023-03-25T07:30:51;97088.41;;;11.58;49.96
15674;BME280;7937;48.090;16.212;2023-03-25T07:33:53;97101.97;;;11.57;50.24
15674;BME280;7937;48.090;16.212;2023-03-25T07:36:56;97089.75;;;11.71;50.22
15674;BME280;7937;48.090;16.212;2023-03-25T07:39:58;97105.25;;;11.79;50.69
15674;BME280;7937;48.090;16.212;2023-03-25T07:43:00;97095.94;;;11.87;50.32
15674;BME280;7937;48.090;16.212;2023-03-25T07:46:22;97095.72;;;12.04;49.29
15674;BME280;7937;48.090;16.212;2023-03-25T07:49:25;97096.25;;;12.11;48.95
15674;BME280;7937;48.090;16.212;2023-03-25T07:52:27;97093.88;;;12.09;48.69
15674;BME280;7937;48.090;16.212;2023-03-25T07:55:29;97082.66;;;12.18;48.58
15674;BME280;7937;48.090;16.212;2023-03-25T07:58:31;97081.31;;;12.30;48.20
15674;BME280;7937;48.090;16.212;2023-03-25T08:01:33;97077.03;;;12.09;47.81
15674;BME280;7937;48.090;16.212;2023-03-25T08:04:36;97040.75;;;11.93;48.75
15674;BME280;7937;48.090;16.212;2023-03-25T08:07:38;97071.97;;;12.23;48.71
15674;BME280;7937;48.090;16.212;2023-03-25T08:10:44;97083.19;;;12.20;48.77
15674;BME280;7937;48.090;16.212;2023-03-25T08:13:48;97092.78;;;12.16;48.53
15674;BME280;7937;48.090;16.212;2023-03-25T08:16:50;97086.13;;;11.93;48.16
15674;BME280;7937;48.090;16.212;2023-03-25T08:19:52;97083.16;;;11.84;48.29
15674;BME280;7937;48.090;16.212;2023-03-25T08:22:54;97112.25;;;11.96;48.53
15674;BME280;7937;48.090;16.212;2023-03-25T08:25:58;97097.03;;;11.86;48.73
15674;BME280;7937;48.090;16.212;2023-03-25T08:29:00;97103.72;;;11.94;48.73
15674;BME280;7937;48.090;16.212;2023-03-25T08:32:03;97081.50;;;11.68;48.53
15674;BME280;7937;48.090;16.212;2023-03-25T08:35:07;97099.44;;;11.82;48.95
15674;BME280;7937;48.090;16.212;2023-03-25T08:38:09;97112.81;;;12.03;49.41
15674;BME280;7937;48.090;16.212;2023-03-25T08:41:11;97108.28;;;12.08;48.95
15674;BME280;7937;48.090;16.212;2023-03-25T08:44:14;97100.78;;;12.05;49.31
15674;BME280;7937;48.090;16.212;2023-03-25T08:47:16;97091.69;;;11.91;49.43
15674;BME280;7937;48.090;16.212;2023-03-25T08:50:18;97132.28;;;11.98;49.26
15674;BME280;7937;48.090;16.212;2023-03-25T08:53:20;97122.94;;;11.96;48.90
15674;BME280;7937;48.090;16.212;2023-03-25T08:56:22;97127.19;;;11.92;49.01
15674;BME280;7937;48.090;16.212;2023-03-25T08:59:24;97121.31;;;11.90;48.96
15674;BME280;7937;48.090;16.212;2023-03-25T09:02:26;97098.03;;;11.75;48.51
15674;BME280;7937;48.090;16.212;2023-03-25T09:05:29;97147.25;;;11.99;48.71
15674;BME280;7937;48.090;16.212;2023-03-25T09:08:31;97144.03;;;11.97;49.78
15674;BME280;7937;48.090;16.212;2023-03-25T09:11:34;97134.41;;;11.96;48.59
15674;BME280;7937;48.090;16.212;2023-03-25T09:14:36;97138.44;;;12.04;47.53
15674;BME280;7937;48.090;16.212;2023-03-25T09:17:39;97144.06;;;12.18;47.35
15674;BME280;7937;48.090;16.212;2023-03-25T09:20:43;97110.94;;;12.08;46.36
15674;BME280;7937;48.090;16.212;2023-03-25T09:23:48;97131.75;;;12.11;45.53
15674;BME280;7937;48.090;16.212;2023-03-25T09:26:51;97131.22;;;12.04;46.16
15674;BME280;7937;48.090;16.212;2023-03-25T09:29:53;97128.84;;;12.18;46.52
15674;BME280;7937;48.090;16.212;2023-03-25T09:32:55;97107.50;;;12.18;46.00
15674;BME280;7937;48.090;16.212;2023-03-25T09:35:57;97081.31;;;12.05;45.49
15674;BME280;7937;48.090;16.212;2023-03-25T09:38:59;97118.97;;;12.39;47.36
15674;BME280;7937;48.090;16.212;2023-03-25T09:45:24;97111.75;;;12.45;45.91
15674;BME280;7937;48.090;16.212;2023-03-25T09:48:38;97121.13;;;12.47;45.35
15674;BME280;7937;48.090;16.212;2023-03-25T09:51:41;97125.41;;;12.53;45.59
15674;BME280;7937;48.090;16.212;2023-03-25T09:54:49;97097.59;;;12.54;45.45
15674;BME280;7937;48.090;16.212;2023-03-25T09:58:01;97114.94;;;12.87;44.79
15674;BME280;7937;48.090;16.212;2023-03-25T10:05:03;97106.84;;;13.18;43.81
15674;BME280;7937;48.090;16.212;2023-03-25T10:08:39;97125.81;;;13.32;43.44
15674;BME280;7937;48.090;16.212;2023-03-25T10:12:00;97106.09;;;13.02;43.26
15674;BME280;7937;48.090;16.212;2023-03-25T10:18:40;97102.03;;;13.15;43.72
15674;BME280;7937;48.090;16.212;2023-03-25T10:21:57;97102.03;;;13.20;43.76
15674;BME280;7937;48.090;16.212;2023-03-25T10:25:04;97111.94;;;13.14;42.16
15674;BME280;7937;48.090;16.212;2023-03-25T10:28:17;97117.84;;;13.06;44.63
15674;BME280;7937;48.090;16.212;2023-03-25T10:31:23;97101.28;;;12.99;43.13
15674;BME280;7937;48.090;16.212;2023-03-25T10:34:34;97133.88;;;13.22;42.53
15674;BME280;7937;48.090;16.212;2023-03-25T10:37:40;97135.47;;;13.23;41.97
15674;BME280;7937;48.090;16.212;2023-03-25T10:40:50;97140.53;;;13.14;43.10
15674;BME280;7937;48.090;16.212;2023-03-25T10:43:54;97142.97;;;13.10;42.86
15674;BME280;7937;48.090;16.212;2023-03-25T10:47:03;97143.53;;;13.02;43.02
15674;BME280;7937;48.090;16.212;2023-03-25T10:50:13;97140.56;;;13.09;42.70
15674;BME280;7937;48.090;16.212;2023-03-25T10:53:25;97143.75;;;13.21;42.06
15674;BME280;7937;48.090;16.212;2023-03-25T10:56:43;97158.47;;;13.24;38.91
15674;BME280;7937;48.090;16.212;2023-03-25T11:00:05;97153.69;;;13.26;39.62
15674;BME280;7937;48.090;16.212;2023-03-25T11:03:27;97157.94;;;13.32;39.60
15674;BME280;7937;48.090;16.212;2023-03-25T11:06:35;97165.97;;;13.32;39.92
15674;BME280;7937;48.090;16.212;2023-03-25T11:09:40;97174.53;;;13.24;40.00
15674;BME280;7937;48.090;16.212;2023-03-25T11:12:43;97152.34;;;13.03;40.02
15674;BME280;7937;48.090;16.212;2023-03-25T11:15:47;97149.13;;;13.26;40.70
15674;BME280;7937;48.090;16.212;2023-03-25T11:18:51;97156.84;;;13.33;40.49
15674;BME280;7937;48.090;16.212;2023-03-25T11:21:58;97151.75;;;13.41;39.86
15674;BME280;7937;48.090;16.212;2023-03-25T11:25:31;97149.56;;;13.54;39.89
15674;BME280;7937;48.090;16.212;2023-03-25T11:28:43;97159.91;;;13.76;38.72
15674;BME280;7937;48.090;16.212;2023-03-25T11:32:05;97149.84;;;13.47;39.33
15674;BME280;7937;48.090;16.212;2023-03-25T11:35:26;97098.84;;;13.23;39.91
15674;BME280;7937;48.090;16.212;2023-03-25T11:38:29;97131.56;;;13.70;39.04
15674;BME280;7937;48.090;16.212;2023-03-25T11:41:36;97125.38;;;13.79;38.73
15674;BME280;7937;48.090;16.212;2023-03-25T11:44:38;97116.28;;;14.19;38.14
15674;BME280;7937;48.090;16.212;2023-03-25T11:47:41;97106.72;;;14.03;37.58
15674;BME280;7937;48.090;16.212;2023-03-25T11:50:54;97112.59;;;14.10;38.20
15674;BME280;7937;48.090;16.212;2023-03-25T11:54:00;97100.53;;;14.08;37.44
15674;BME280;7937;48.090;16.212;2023-03-25T11:57:05;97088.81;;;13.99;37.34
15674;BME280;7937;48.090;16.212;2023-03-25T12:03:27;97075.81;;;14.21;36.58
15674;BME280;7937;48.090;16.212;2023-03-25T12:06:30;97077.75;;;14.50;36.59
15674;BME280;7937;48.090;16.212;2023-03-25T12:09:32;97069.81;;;14.92;35.38
15674;BME280;7937;48.090;16.212;2023-03-25T12:12:44;97072.06;;;15.09;34.68
15674;BME280;7937;48.090;16.212;2023-03-25T12:15:58;97050.97;;;15.03;33.96
15674;BME280;7937;48.090;16.212;2023-03-25T12:19:27;97062.06;;;15.15;34.75
15674;BME280;7937;48.090;16.212;2023-03-25T12:22:47;97059.03;;;15.21;33.49
15674;BME280;7937;48.090;16.212;2023-03-25T12:26:07;97043.34;;;15.34;34.26
15674;BME280;7937;48.090;16.212;2023-03-25T12:29:31;97062.75;;;15.26;32.85
15674;BME280;7937;48.090;16.212;2023-03-25T12:33:04;97064.25;;;15.56;32.49
15674;BME280;7937;48.090;16.212;2023-03-25T12:36:33;97043.41;;;15.71;32.15
15674;BME280;7937;48.090;16.212;2023-03-25T12:43:30;97032.06;;;15.32;31.81
15674;BME280;7937;48.090;16.212;2023-03-25T12:46:53;97036.38;;;15.52;32.52
15674;BME280;7937;48.090;16.212;2023-03-25T13:03:23;97023.00;;;15.89;30.91
15674;BME280;7937;48.090;16.212;2023-03-25T13:06:34;97010.00;;;15.78;32.23
15674;BME280;7937;48.090;16.212;2023-03-25T13:12:56;97019.09;;;15.82;31.81
15674;BME280;7937;48.090;16.212;2023-03-25T13:16:11;97002.81;;;15.92;30.18
15674;BME280;7937;48.090;16.212;2023-03-25T13:19:19;97014.50;;;16.01;30.26
15674;BME280;7937;48.090;16.212;2023-03-25T13:22:28;97000.28;;;16.14;29.69
15674;BME280;7937;48.090;16.212;2023-03-25T13:25:40;97016.44;;;16.61;29.15
15674;BME280;7937;48.090;16.212;2023-03-25T13:28:46;97015.69;;;17.01;27.81
15674;BME280;7937;48.090;16.212;2023-03-25T13:31:49;97015.88;;;16.77;28.49
15674;BME280;7937;48.090;16.212;2023-03-25T13:35:05;97017.91;;;16.20;28.49
15674;BME280;7937;48.090;16.212;2023-03-25T13:38:14;97018.78;;;15.83;29.48
15674;BME280;7937;48.090;16.212;2023-03-25T13:41:26;97010.44;;;15.47;30.43
15674;BME280;7937;48.090;16.212;2023-03-25T13:44:33;97010.53;;;15.37;30.62
15674;BME280;7937;48.090;16.212;2023-03-25T13:47:40;96976.16;;;15.39;30.85
15674;BME280;7937;48.090;16.212;2023-03-25T13:50:45;97003.03;;;15.58;30.08
15674;BME280;7937;48.090;16.212;2023-03-25T14:11:37;96968.03;;;14.00;31.67
15674;BME280;7937;48.090;16.212;2023-03-25T14:14:53;97021.38;;;14.26;31.97
15674;BME280;7937;48.090;16.212;2023-03-25T14:18:00;97018.84;;;14.10;32.51
15674;BME280;7937;48.090;16.212;2023-03-25T14:21:33;97009.53;;;14.03;33.13
15674;BME280;7937;48.090;16.212;2023-03-25T14:24:41;97007.09;;;14.06;33.53
15674;BME280;7937;48.090;16.212;2023-03-25T14:27:48;96932.53;;;13.55;33.59
15674;BME280;7937;48.090;16.212;2023-03-25T14:34:21;97006.75;;;14.42;33.63
15674;BME280;7937;48.090;16.212;2023-03-25T14:37:25;97005.13;;;14.46;33.06
15674;BME280;7937;48.090;16.212;2023-03-25T17:19:48;97070.38;;;6.83;72.24
15674;BME280;7937;48.090;16.212;2023-03-25T17:22:58;96996.22;;;6.19;73.81
15674;BME280;7937;48.090;16.212;2023-03-25T17:26:05;96973.44;;;5.72;75.50
15674;BME280;7937;48.090;16.212;2023-03-25T17:29:10;97152.94;;;6.80;76.31
15674;BME280;7937;48.090;16.212;2023-03-25T17:32:16;97038.53;;;6.08;77.34
15674;BME280;7937;48.090;16.212;2023-03-25T17:35:24;97163.28;;;6.70;77.53
15674;BME280;7937;48.090;16.212;2023-03-25T17:38:35;97165.09;;;6.58;78.01
15674;BME280;7937;48.090;16.212;2023-03-25T17:41:40;97091.22;;;5.91;78.66
15674;BME280;7937;48.090;16.212;2023-03-25T17:44:43;97209.16;;;6.64;79.96
15674;BME280;7937;48.090;16.212;2023-03-25T17:47:47;96960.88;;;4.83;80.16
15674;BME280;7937;48.090;16.212;2023-03-25T17:50:52;97235.75;;;6.57;81.98
15674;BME280;7937;48.090;16.212;2023-03-25T17:53:55;97235.50;;;6.59;80.07
15674;BME280;7937;48.090;16.212;2023-03-25T17:56:58;97237.03;;;6.66;79.04
15674;BME280;7937;48.090;16.212;2023-03-25T18:00:01;97196.84;;;6.46;78.49
15674;BME280;7937;48.090;16.212;2023-03-25T18:03:21;97205.41;;;6.71;79.67
15674;BME280;7937;48.090;16.212;2023-03-25T18:06:25;97018.66;;;5.52;79.98
15674;BME280;7937;48.090;16.212;2023-03-25T18:09:27;97091.75;;;6.00;80.36
15674;BME280;7937;48.090;16.212;2023-03-25T18:12:30;97186.47;;;6.33;81.14
15674;BME280;7937;48.090;16.212;2023-03-25T18:15:34;97129.38;;;6.25;79.76
15674;BME280;7937;48.090;16.212;2023-03-25T18:18:41;96999.31;;;5.39;80.33
15674;BME280;7937;48.090;16.212;2023-03-25T18:21:44;97121.44;;;6.02;80.59
15674;BME280;7937;48.090;16.212;2023-03-25T18:24:47;97155.72;;;6.20;78.91
15674;BME280;7937;48.090;16.212;2023-03-25T18:27:52;97157.78;;;6.18;78.43
15674;BME280;7937;48.090;16.212;2023-03-25T18:30:57;97145.00;;;5.85;79.32
15674;BME280;7937;48.090;16.212;2023-03-25T18:34:03;96994.31;;;4.89;79.82
15674;BME280;7937;48.090;16.212;2023-03-25T18:37:09;97215.16;;;6.17;80.29
15674;BME280;7937;48.090;16.212;2023-03-25T18:40:22;97186.88;;;6.18;76.74
15674;BME280;7937;48.090;16.212;2023-03-25T18:43:25;97175.38;;;6.12;75.96
15674;BME280;7937;48.090;16.212;2023-03-25T18:46:28;97102.69;;;5.73;74.05
15674;BME280;7937;48.090;16.212;2023-03-25T18:49:33;97111.41;;;5.92;72.67
15674;BME280;7937;48.090;16.212;2023-03-25T18:52:39;97172.13;;;6.64;69.92
15674;BME280;7937;48.090;16.212;2023-03-25T18:55:43;97151.19;;;6.62;71.45
15674;BME280;7937;48.090;16.212;2023-03-25T18:58:47;97178.34;;;6.81;69.04
15674;BME280;7937;48.090;16.212;2023-03-25T19:01:50;96982.09;;;5.37;69.45
15674;BME280;7937;48.090;16.212;2023-03-25T19:04:54;97200.22;;;6.77;69.85
15674;BME280;7937;48.090;16.212;2023-03-25T19:08:03;97186.16;;;6.64;70.73
15674;BME280;7937;48.090;16.212;2023-03-25T19:11:09;97138.72;;;6.39;68.67
15674;BME280;7937;48.090;16.212;2023-03-25T19:14:22;97023.28;;;5.80;68.63
15674;BME280;7937;48.090;16.212;2023-03-25T19:17:46;96837.63;;;4.72;66.43
15674;BME280;7937;48.090;16.212;2023-03-25T19:20:50;97210.94;;;6.70;70.65
15674;BME280;7937;48.090;16.212;2023-03-25T19:23:54;97181.34;;;6.73;67.54
15674;BME280;7937;48.090;16.212;2023-03-25T19:27:00;97065.94;;;5.83;67.56
15674;BME280;7937;48.090;16.212;2023-03-25T19:30:06;97157.47;;;6.38;67.68
15674;BME280;7937;48.090;16.212;2023-03-25T19:33:11;97217.72;;;6.66;69.82
15674;BME280;7937;48.090;16.212;2023-03-25T19:36:15;97224.50;;;7.09;67.30
15674;BME280;7937;48.090;16.212;2023-03-25T19:39:21;96810.16;;;4.50;66.96
15674;BME280;7937;48.090;16.212;2023-03-25T19:42:30;97232.00;;;7.12;69.96
15674;BME280;7937;48.090;16.212;2023-03-25T19:45:34;97221.28;;;7.18;67.76
15674;BME280;7937;48.090;16.212;2023-03-25T19:48:36;97173.84;;;6.58;70.19
15674;BME280;7937;48.090;16.212;2023-03-25T19:51:40;96921.34;;;4.95;68.52
15674;BME280;7937;48.090;16.212;2023-03-25T19:54:49;97211.16;;;7.04;69.07
15674;BME280;7937;48.090;16.212;2023-03-25T19:57:53;96980.75;;;5.58;68.34
15674;BME280;7937;48.090;16.212;2023-03-25T20:00:56;97218.66;;;7.07;67.63
15674;BME280;7937;48.090;16.212;2023-03-25T20:04:01;97179.84;;;6.89;67.16
15674;BME280;7937;48.090;16.212;2023-03-25T20:07:09;97221.06;;;7.08;66.59
15674;BME280;7937;48.090;16.212;2023-03-25T20:10:15;97158.66;;;6.54;66.25
15674;BME280;7937;48.090;16.212;2023-03-25T20:13:24;97162.13;;;6.78;65.02
15674;BME280;7937;48.090;16.212;2023-03-25T20:16:28;97100.72;;;5.99;68.71
15674;BME280;7937;48.090;16.212;2023-03-25T20:19:32;97023.59;;;5.60;67.83
15674;BME280;7937;48.090;16.212;2023-03-25T20:22:40;96763.38;;;4.15;66.84
15674;BME280;7937;48.090;16.212;2023-03-25T20:25:43;96788.38;;;3.94;66.57
15674;BME280;7937;48.090;16.212;2023-03-25T20:28:48;97033.06;;;5.79;65.44
15674;BME280;7937;48.090;16.212;2023-03-25T20:31:56;96748.03;;;3.94;64.84